Terminal Aerodrome Forecast
Issued by NWS Caribou, ME

Home | Current Version | Previous Version | Text Only | Print | Product List | Glossary On
Versions: 1 2 3 4 5 6 7 8 9 10 11 12 13 14 15 16 17 18 19 20 21
000
FTUS41 KCAR 050408 AAA
TAFBGR
TAF AMD
KBGR 050408Z 0504/0524 07005KT 5SM -RA BR SCT025 BKN050
     FM050500 02010KT 6SM -RA OVC020
     FM050800 04009KT 3SM -RA BR OVC006
     FM051200 04010KT 6SM BR VCSH OVC009
     FM051600 04010KT P6SM VCSH OVC015=

USA.gov is the U.S. government's official web portal to all federal, state and local government web resources and services.